Cedar Crest, NM (87008)

11:36 PM MDT on May 24, 2015 (GMT -0600)
NM14 & Canoncito | | Change Station
CLOSE
Current Station
Personal Weather Station
Location: Cedar Crest, NM
Elevation: 6906 ft
Nearby Weather Stations

Elev 6906 ft 35.13 °N, 106.37 °W | Updated 56 seconds ago

Overcast
Overcast
45.7 °F
Feels Like 46 °F
N
3.0
Wind Variable Wind from SW
Gusts 7.0 mph

Today
High -- | Low -- °F
--% Chance of Precip.
Yesterday
High -- | Low -- °F
Precip. -- in
5:55 AM 8:09 PM
Waxing Crescent, 45% visible
Pressure 29.87 in
Visibility 10.0 miles
Clouds Scattered Clouds 4000 ft
Mostly Cloudy 5500 ft
Overcast 7000 ft
Windchill 46 °F
Dew Point 37 °F
Humidity 71%
Rainfall 0.02 in
Snow Depth Not available.
UV 0 out of 12
Pollen 4.60 out of 12
Air Quality Not available.
Flu Activity Local Activity
METAR KABQ 250452Z 29012G19KT 10SM -RA SCT040 BKN055 OVC070 13/06 A3002 RMK AO2 RAB13 SLP114 MTNS OBSC NE-SE P0000 T01280056

More Conditions Fewer Conditions

Pressure 29.87 in
Visibility 10.0 miles
Clouds Scattered Clouds 4000 ft
Mostly Cloudy 5500 ft
Overcast 7000 ft
Windchill 46 °F
Dew Point 37 °F
Humidity 71%
Rainfall 0.02 in
Snow Depth Not available.
UV 0 out of 12
Pollen 4.60 out of 12
Air Quality Not available.
Flu Activity Local Activity
METAR KABQ 250452Z 29012G19KT 10SM -RA SCT040 BKN055 OVC070 13/06 A3002 RMK AO2 RAB13 SLP114 MTNS OBSC NE-SE P0000 T01280056

More Conditions Fewer Conditions

Nowcast | as of 10:14 PM MDT on May 24, 2015

Showers and thunderstorms will continue to trend down over the next couple of hours while impacting areas along and south of Interstate 40. Through 1230 am...these storms could produce a lightning strike or two...but mainly will produce brief gusty winds with light to moderate rain. A quick tenth to a quarter of an inch of rain will be possible with the stronger cells...but most areas will see less than a tenth of an inch. Some areas that will be impacted include Interstate 40 between Edgewood and Moriarty...Interstate 40 between Albuquerque and Laguna...and Interstate 25 between the South Valley and Socorro.

×

10-Day Weather Forecast

Almanac

Astronomy

May. 24, 2015 Rise Set
Actual Time
Civil Twilight
Nautical Twilight
Astronomical Twilight
Moon
Length of Visible Light
Length of Day
Tomorrow will be .
, % of the Moon is Illuminated

Today's Extremes

State Highs State Lows

Community

WunderPhotos

Upload Photos

1,823,956 photos uploaded!

WunderBlogs® & News

Nearby

Air Quality

  Air Quality AQ Index Pollutant
Not available.

Snow Depth

Station Depth Elevation

Earthquake Activity

City Distance Mag. Time & Date
Minimum magnitude displayed is 2.5.

Coastal Water Temperatures

Place Temperature

Stations

Nearby Weather Stations

Station Location Temp. Windchill Dew Point Humidity Wind Precip. Elev Updated Type